Time;durP1;ratioP1;P1;durP2;ratioP2;P2;SDS_P1;SDS_P2;PMS_P1;PMS_P2;Temp;Humidity;BMP_temperature;BMP_pressure;BME280_temperature;BME280_humidity;BME280_pressure;Samples;Min_cycle;Max_cycle;Signal;HPM_P1;HPM_P2
2022/12/26 00:01:47;;;;;;;13.82;1.95;;;10.50;99.90;;;;;;4994379;28;20324;-78
2022/12/26 00:04:15;;;;;;;18.90;2.60;;;10.30;99.90;;;;;;5014594;28;20092;-77
2022/12/26 00:06:40;;;;;;;11.65;1.75;;;10.20;99.90;;;;;;5014947;28;20029;-77
2022/12/26 00:09:08;;;;;;;13.70;1.60;;;10.30;99.90;;;;;;4995615;28;20044;-77
2022/12/26 00:11:34;;;;;;;16.52;1.92;;;10.30;99.90;;;;;;4994912;28;20291;-77
2022/12/26 00:14:06;;;;;;;13.07;1.73;;;10.30;99.90;;;;;;4996168;28;20186;-77
2022/12/26 00:16:32;;;;;;;;;;;10.20;99.90;;;;;;5014402;28;20032;-77
2022/12/26 00:18:58;;;;;;;17.83;1.98;;;10.20;99.90;;;;;;4995438;28;19920;-77
2022/12/26 00:21:26;;;;;;;17.02;2.35;;;10.30;99.90;;;;;;4996690;28;20025;-77
2022/12/26 00:23:52;;;;;;;16.75;2.03;;;10.30;99.90;;;;;;5012831;28;20256;-77
2022/12/26 00:26:20;;;;;;;22.77;2.33;;;10.40;99.90;;;;;;5017799;28;20603;-77
2022/12/26 00:28:46;;;;;;;18.08;2.30;;;10.50;99.90;;;;;;5011942;28;20641;-77
2022/12/26 00:31:24;;;;;;;18.40;1.90;;;10.60;99.90;;;;;;5013712;28;20025;-77
2022/12/26 00:33:50;;;;;;;21.45;2.20;;;10.60;99.90;;;;;;4996983;28;20136;-78
2022/12/26 00:36:19;;;;;;;18.30;1.98;;;10.50;99.90;;;;;;4995721;28;20040;-77
2022/12/26 00:38:45;;;;;;;21.30;2.40;;;10.50;99.90;;;;;;4992283;28;20038;-78
2022/12/26 00:41:12;;;;;;;16.77;2.38;;;10.50;99.90;;;;;;5001085;28;20549;-77
2022/12/26 00:43:38;;;;;;;20.48;2.60;;;10.60;99.90;;;;;;4998459;28;20116;-77
2022/12/26 00:46:05;;;;;;;17.13;3.03;;;10.60;99.90;;;;;;5019414;28;20104;-77
2022/12/26 00:48:30;;;;;;;22.00;2.78;;;10.50;99.90;;;;;;4999101;28;20033;-77
2022/12/26 00:50:56;;;;;;;17.85;2.45;;;10.50;99.90;;;;;;5018961;28;20079;-77
2022/12/26 00:53:23;;;;;;;25.00;2.38;;;10.40;99.90;;;;;;4998768;28;20602;-77
2022/12/26 00:55:50;;;;;;;15.02;2.65;;;10.50;99.90;;;;;;5018352;28;20132;-77
2022/12/26 00:58:16;;;;;;;16.80;2.45;;;10.50;99.90;;;;;;5017215;28;20126;-78
2022/12/26 01:00:41;;;;;;;17.10;2.70;;;10.60;99.90;;;;;;5000855;28;20528;-77
2022/12/26 01:03:08;;;;;;;16.30;2.30;;;10.70;99.90;;;;;;5017993;28;20033;-77
2022/12/26 01:05:34;;;;;;;20.45;2.85;;;10.70;99.90;;;;;;5018676;28;20083;-78
2022/12/26 01:07:59;;;;;;;19.10;2.92;;;10.60;99.90;;;;;;4996403;28;20353;-77
2022/12/26 01:10:26;;;;;;;17.35;2.17;;;10.60;99.90;;;;;;5017138;28;20048;-78
2022/12/26 01:12:52;;;;;;;27.50;2.65;;;10.60;99.90;;;;;;4998673;28;20036;-77
2022/12/26 01:15:18;;;;;;;15.15;1.92;;;10.50;99.90;;;;;;5017816;28;20123;-78
2022/12/26 01:17:44;;;;;;;23.15;2.17;;;10.50;99.90;;;;;;4999585;28;20025;-77
2022/12/26 01:20:10;;;;;;;17.77;2.80;;;10.40;99.90;;;;;;5016764;28;20030;-77
2022/12/26 01:22:36;;;;;;;14.77;1.92;;;10.50;99.90;;;;;;5017269;28;20508;-77
2022/12/26 01:25:03;;;;;;;18.50;2.33;;;10.50;99.90;;;;;;5016952;28;20021;-77
2022/12/26 01:27:28;;;;;;;22.88;1.90;;;10.60;99.90;;;;;;5015747;28;20036;-77
2022/12/26 01:29:55;;;;;;;24.10;2.75;;;10.70;99.90;;;;;;5001631;28;20033;-77
2022/12/26 01:32:21;;;;;;;12.70;2.13;;;10.60;99.90;;;;;;5002352;28;20135;-78
2022/12/26 01:34:47;;;;;;;21.35;2.50;;;10.60;99.90;;;;;;5021031;28;20045;-77
2022/12/26 01:37:13;;;;;;;17.92;2.50;;;10.70;99.90;;;;;;5019500;28;20025;-77
2022/12/26 01:39:39;;;;;;;19.77;2.75;;;10.70;99.90;;;;;;5004505;28;20141;-77
2022/12/26 01:42:12;;;;;;;11.10;1.48;;;10.70;99.90;;;;;;5018670;28;20076;-77
2022/12/26 01:45:03;;;;;;;17.55;2.20;;;10.70;99.90;;;;;;5001256;28;20098;-77
2022/12/26 01:47:44;;;;;;;26.30;3.53;;;10.60;99.90;;;;;;5000073;28;20488;-77
2022/12/26 01:50:15;;;;;;;;;;;10.70;99.90;;;;;;4999949;28;20040;-77
2022/12/26 01:52:45;;;;;;;16.60;2.40;;;10.70;99.90;;;;;;4999201;28;20002;-77
2022/12/26 01:55:15;;;;;;;19.38;2.88;;;10.70;99.90;;;;;;5000823;28;20409;-77
2022/12/26 01:57:44;;;;;;;19.38;2.75;;;10.70;99.90;;;;;;5016765;28;20928;-78
2022/12/26 02:00:10;;;;;;;20.77;2.80;;;10.60;99.90;;;;;;5002103;28;20025;-77
2022/12/26 02:05:36;;;;;;;22.52;2.58;;;10.70;99.90;;;;;;5019291;28;20146;-77
2022/12/26 02:08:07;;;;;;;16.23;2.07;;;10.80;99.90;;;;;;4999492;28;20033;-78
2022/12/26 02:10:39;;;;;;;27.70;3.00;;;10.90;99.90;;;;;;5004969;28;20477;-77
2022/12/26 02:13:05;;;;;;;19.23;2.35;;;10.90;99.90;;;;;;5017384;28;20358;-77
2022/12/26 02:15:31;;;;;;;21.58;3.00;;;10.90;99.90;;;;;;4991972;28;20061;-77
2022/12/26 02:17:56;;;;;;;18.73;2.33;;;10.90;99.90;;;;;;5000390;28;20030;-77
2022/12/26 02:20:25;;;;;;;18.75;2.55;;;10.80;99.90;;;;;;5011675;28;20033;-77
2022/12/26 02:23:15;;;;;;;23.50;2.58;;;10.90;99.90;;;;;;4994422;28;20045;-77
2022/12/26 02:25:56;;;;;;;18.20;2.38;;;10.80;99.90;;;;;;4998795;28;20060;-78
2022/12/26 02:28:40;;;;;;;23.55;2.10;;;10.90;99.90;;;;;;4994274;28;20057;-77
2022/12/26 02:31:18;;;;;;;18.67;3.25;;;10.90;99.90;;;;;;5019622;28;20037;-78
2022/12/26 02:33:56;;;;;;;18.52;2.78;;;10.80;99.90;;;;;;5015285;28;20480;-78
2022/12/26 02:36:46;;;;;;;27.45;2.60;;;10.80;99.90;;;;;;5016640;28;20367;-77
2022/12/26 02:39:23;;;;;;;25.08;2.28;;;10.80;99.90;;;;;;5002086;28;20029;-77
2022/12/26 02:42:16;;;;;;;25.20;2.75;;;10.90;99.90;;;;;;4997103;28;20059;-77
2022/12/26 02:48:20;;;;;;;31.38;2.92;;;11.00;99.90;;;;;;4998395;28;20041;-77
2022/12/26 03:14:13;;;;;;;21.75;2.33;;;11.10;99.90;;;;;;5016043;28;20052;-78
2022/12/26 03:19:27;;;;;;;16.75;2.50;;;11.10;99.90;;;;;;5015604;28;20064;-78
2022/12/26 03:21:54;;;;;;;26.90;3.15;;;11.20;99.90;;;;;;4997307;28;20290;-77
2022/12/26 03:24:21;;;;;;;24.17;3.08;;;11.10;99.90;;;;;;5011909;28;20075;-78
2022/12/26 03:26:52;;;;;;;19.33;2.20;;;11.10;99.90;;;;;;5012194;28;20056;-77
2022/12/26 03:32:08;;;;;;;24.65;3.03;;;11.00;99.90;;;;;;5008057;28;20048;-77
2022/12/26 03:34:40;;;;;;;23.65;2.47;;;10.90;99.90;;;;;;5016377;28;20068;-77
2022/12/26 03:37:14;;;;;;;;;;;10.80;99.90;;;;;;4999126;28;20493;-77
2022/12/26 04:44:11;;;;;;;14.23;1.63;;;9.50;99.90;;;;;;5018575;28;20091;-79
2022/12/26 04:46:47;;;;;;;15.70;1.45;;;9.50;99.90;;;;;;5020544;28;20033;-78
2022/12/26 04:52:01;;;;;;;12.30;1.40;;;9.40;99.90;;;;;;5020449;28;20421;-78
2022/12/26 04:54:27;;;;;;;15.40;1.80;;;9.40;99.90;;;;;;5001953;28;20060;-79
2022/12/26 04:56:53;;;;;;;14.77;1.85;;;9.40;99.90;;;;;;5020708;28;20335;-79
2022/12/26 04:59:19;;;;;;;17.02;1.60;;;9.40;99.90;;;;;;5019776;28;20041;-80
2022/12/26 05:10:18;;;;;;;9.00;1.08;;;9.60;99.90;;;;;;5018057;28;20059;-79
2022/12/26 05:12:45;;;;;;;10.55;1.50;;;9.40;99.90;;;;;;5000416;28;20034;-80
2022/12/26 05:15:10;;;;;;;11.20;1.23;;;9.50;99.90;;;;;;5000767;28;20040;-79
2022/12/26 05:28:41;;;;;;;5.82;0.82;;;9.70;99.90;;;;;;5021358;28;20048;-79
2022/12/26 05:31:11;;;;;;;4.53;0.52;;;9.70;99.90;;;;;;5004172;28;20508;-79
2022/12/26 05:36:24;;;;;;;3.17;0.45;;;9.60;99.90;;;;;;5009289;28;20134;-79
2022/12/26 05:38:50;;;;;;;1.70;0.57;;;9.50;99.90;;;;;;5002651;28;20033;-79
2022/12/26 05:41:16;;;;;;;3.25;0.45;;;9.50;99.90;;;;;;5002337;28;20041;-79
2022/12/26 05:43:41;;;;;;;4.80;0.50;;;9.40;99.90;;;;;;5020500;28;20346;-79
2022/12/26 05:46:07;;;;;;;1.05;0.30;;;9.40;99.90;;;;;;5006396;28;20443;-79
2022/12/26 05:48:33;;;;;;;3.63;0.63;;;9.40;99.90;;;;;;5003469;28;20033;-79
2022/12/26 05:51:02;;;;;;;3.55;0.73;;;9.40;99.90;;;;;;5002359;28;20033;-79
2022/12/26 05:53:29;;;;;;;2.50;0.57;;;9.30;99.90;;;;;;5021896;28;20037;-79
2022/12/26 05:56:00;;;;;;;2.70;0.40;;;9.40;99.90;;;;;;5001771;28;20029;-79
2022/12/26 05:58:26;;;;;;;3.63;0.70;;;9.40;99.90;;;;;;5018523;28;20124;-79
2022/12/26 06:00:51;;;;;;;4.90;0.60;;;9.30;99.90;;;;;;5001463;28;20445;-79
2022/12/26 06:03:17;;;;;;;3.15;0.47;;;9.30;99.90;;;;;;5002620;28;20466;-79
2022/12/26 06:05:42;;;;;;;2.75;0.70;;;9.30;99.90;;;;;;5002860;28;20025;-79
2022/12/26 06:08:08;;;;;;;0.88;0.30;;;9.20;99.90;;;;;;5001135;28;20568;-79
2022/12/26 06:10:34;;;;;;;3.17;0.60;;;9.10;99.90;;;;;;5020781;28;20430;-79
2022/12/26 06:13:00;;;;;;;0.85;0.40;;;9.00;99.90;;;;;;4998604;28;20501;-79
2022/12/26 06:15:26;;;;;;;1.08;0.43;;;8.90;99.90;;;;;;4997514;28;20484;-80
2022/12/26 06:17:54;;;;;;;1.30;0.38;;;8.90;99.90;;;;;;4999443;28;20041;-79
2022/12/26 06:20:19;;;;;;;3.22;0.50;;;8.80;99.90;;;;;;5001575;28;20036;-79
2022/12/26 06:22:45;;;;;;;6.80;0.60;;;8.70;99.90;;;;;;5020848;28;20566;-80
2022/12/26 06:25:11;;;;;;;1.98;0.57;;;8.70;99.90;;;;;;5003121;28;20120;-79
2022/12/26 06:27:36;;;;;;;1.05;0.40;;;8.80;99.90;;;;;;5019210;28;20057;-79
2022/12/26 06:30:02;;;;;;;5.07;0.45;;;8.80;99.90;;;;;;5021870;28;20029;-79
2022/12/26 06:32:28;;;;;;;0.70;0.35;;;8.70;99.90;;;;;;5000708;28;20041;-79
2022/12/26 06:34:53;;;;;;;1.30;0.40;;;8.70;99.90;;;;;;5002409;28;20080;-79
2022/12/26 06:37:19;;;;;;;1.20;0.50;;;8.50;99.90;;;;;;4996979;28;20111;-79
2022/12/26 06:39:45;;;;;;;4.32;0.60;;;8.40;99.90;;;;;;5000858;28;20037;-78
2022/12/26 06:42:11;;;;;;;2.35;0.60;;;8.30;99.90;;;;;;4999763;28;20050;-78
2022/12/26 06:44:36;;;;;;;2.40;0.35;;;8.30;99.90;;;;;;4984206;28;20452;-79
2022/12/26 06:47:02;;;;;;;2.13;0.38;;;8.30;99.90;;;;;;4993197;28;20349;-78
2022/12/26 06:49:27;;;;;;;1.35;0.50;;;8.30;99.90;;;;;;4999110;28;20042;-78
2022/12/26 06:51:53;;;;;;;2.08;0.60;;;8.30;99.90;;;;;;4996488;28;20034;-79
2022/12/26 06:54:18;;;;;;;1.17;0.57;;;8.20;99.90;;;;;;4988902;28;20038;-79
2022/12/26 06:56:44;;;;;;;3.40;0.60;;;8.30;99.90;;;;;;4981764;28;20034;-78
2022/12/26 06:59:10;;;;;;;3.00;0.50;;;8.30;99.90;;;;;;4986152;28;20037;-78
2022/12/26 07:01:36;;;;;;;2.70;0.70;;;8.40;99.90;;;;;;4997956;28;20034;-79
2022/12/26 07:04:03;;;;;;;2.47;0.45;;;8.40;99.90;;;;;;4998037;28;20041;-78
2022/12/26 07:06:30;;;;;;;0.75;0.50;;;8.40;99.90;;;;;;4995617;28;20442;-78
2022/12/26 07:09:05;;;;;;;0.95;0.40;;;8.40;99.90;;;;;;4998202;28;20037;-78
2022/12/26 07:11:33;;;;;;;0.63;0.50;;;8.40;99.90;;;;;;4994078;28;20030;-79
2022/12/26 07:13:59;;;;;;;2.33;0.68;;;8.30;99.90;;;;;;5014733;28;20877;-78
2022/12/26 07:16:26;;;;;;;0.60;0.50;;;8.20;99.90;;;;;;4998668;28;20030;-79
2022/12/26 07:18:56;;;;;;;2.28;0.40;;;8.20;99.90;;;;;;5014985;28;20121;-78
2022/12/26 07:21:22;;;;;;;1.20;0.32;;;8.20;99.90;;;;;;4997402;28;20311;-79
2022/12/26 07:23:49;;;;;;;1.00;0.55;;;8.20;99.90;;;;;;4996254;28;20042;-78
2022/12/26 07:26:14;;;;;;;17.45;6.68;;;8.10;99.90;;;;;;4998667;28;20048;-79
2022/12/26 07:28:40;;;;;;;3.67;1.02;;;8.00;99.90;;;;;;4999726;28;20022;-79
2022/12/26 07:31:06;;;;;;;0.85;0.40;;;7.90;99.90;;;;;;4997679;28;20037;-79
2022/12/26 07:33:33;;;;;;;2.72;0.40;;;7.80;99.90;;;;;;4997976;28;20040;-78
2022/12/26 07:36:04;;;;;;;0.52;0.32;;;7.70;99.90;;;;;;4996209;28;20044;-79
2022/12/26 07:38:29;;;;;;;2.45;0.30;;;7.60;99.90;;;;;;4990105;28;20496;-79
2022/12/26 07:40:56;;;;;;;4.63;2.00;;;7.60;99.90;;;;;;4995027;28;20340;-78
2022/12/26 07:43:21;;;;;;;2.30;0.45;;;7.60;99.90;;;;;;5010692;28;20034;-79
2022/12/26 07:45:47;;;;;;;3.47;0.85;;;7.50;99.90;;;;;;4998101;28;20045;-78
2022/12/26 07:48:13;;;;;;;4.38;0.70;;;7.50;99.90;;;;;;5015215;28;20045;-79
2022/12/26 07:50:39;;;;;;;2.15;0.45;;;7.40;99.90;;;;;;4997653;28;20158;-78
2022/12/26 07:53:04;;;;;;;5.97;0.50;;;7.40;99.90;;;;;;4998319;28;20856;-78
2022/12/26 07:55:30;;;;;;;2.50;0.40;;;7.30;99.90;;;;;;4995604;28;20045;-79
2022/12/26 07:57:55;;;;;;;3.70;0.50;;;7.30;99.90;;;;;;4996258;28;20393;-78
2022/12/26 08:00:21;;;;;;;2.08;0.40;;;7.30;99.90;;;;;;4987004;28;20037;-78
2022/12/26 08:02:49;;;;;;;7.45;2.75;;;7.30;99.90;;;;;;5011775;28;20030;-81
2022/12/26 08:05:15;;;;;;;1.90;0.50;;;7.20;99.90;;;;;;5009997;28;20072;-76
2022/12/26 08:07:41;;;;;;;2.75;0.43;;;7.10;99.90;;;;;;4988018;28;20571;-78
2022/12/26 08:10:07;;;;;;;2.70;0.65;;;6.90;99.90;;;;;;4990198;28;20032;-78
2022/12/26 08:12:33;;;;;;;1.08;0.38;;;6.90;99.90;;;;;;4995025;28;20052;-82
2022/12/26 08:14:58;;;;;;;4.38;0.40;;;6.70;99.90;;;;;;4991565;28;20038;-77
2022/12/26 08:17:24;;;;;;;4.22;1.00;;;6.60;99.90;;;;;;4993334;28;20074;-78
2022/12/26 08:19:50;;;;;;;6.40;0.55;;;6.50;99.90;;;;;;4996114;28;20030;-77
2022/12/26 08:22:16;;;;;;;3.17;0.45;;;6.50;99.90;;;;;;4993103;28;20378;-79
2022/12/26 08:24:41;;;;;;;1.90;0.50;;;6.40;99.90;;;;;;4994510;28;20462;-77
2022/12/26 08:27:07;;;;;;;3.00;0.52;;;6.30;99.90;;;;;;4993166;28;20053;-77
2022/12/26 08:29:33;;;;;;;3.75;0.40;;;6.30;99.90;;;;;;4993898;28;20034;-78
2022/12/26 08:31:58;;;;;;;5.72;0.68;;;6.30;99.90;;;;;;4995459;28;20114;-78
2022/12/26 08:34:24;;;;;;;3.22;0.40;;;6.20;99.90;;;;;;4995074;28;20483;-77
2022/12/26 08:36:50;;;;;;;2.42;0.60;;;6.10;99.90;;;;;;4995830;28;20030;-78
2022/12/26 08:39:16;;;;;;;1.90;0.50;;;6.00;99.90;;;;;;4996409;28;20432;-78
2022/12/26 08:41:44;;;;;;;5.97;0.60;;;6.00;99.90;;;;;;4994852;28;20382;-78
2022/12/26 08:44:11;;;;;;;3.50;0.63;;;6.00;99.90;;;;;;4993581;28;20034;-78
2022/12/26 08:46:37;;;;;;;3.88;0.52;;;6.00;99.90;;;;;;4993037;28;20029;-77
2022/12/26 08:49:03;;;;;;;1.70;0.60;;;6.10;99.90;;;;;;4995987;28;20021;-78
2022/12/26 08:51:28;;;;;;;4.45;0.68;;;6.10;99.90;;;;;;4997370;28;20030;-77
2022/12/26 08:53:54;;;;;;;4.53;0.50;;;6.00;99.90;;;;;;4999777;28;20069;-77
2022/12/26 08:56:25;;;;;;;6.65;1.33;;;6.10;99.90;;;;;;4997169;28;20073;-77
2022/12/26 08:58:51;;;;;;;6.05;0.88;;;6.00;99.90;;;;;;4996123;28;20026;-78
2022/12/26 09:01:26;;;;;;;7.68;0.80;;;6.00;99.90;;;;;;5001508;28;20067;-78
2022/12/26 09:03:53;;;;;;;5.00;0.70;;;6.00;99.90;;;;;;5000459;28;20405;-78
2022/12/26 09:06:19;;;;;;;3.75;0.30;;;6.00;99.90;;;;;;5000031;28;20021;-78
2022/12/26 09:08:44;;;;;;;3.65;0.65;;;6.10;99.90;;;;;;4997243;28;20425;-77
2022/12/26 09:11:13;;;;;;;6.65;0.70;;;6.20;99.90;;;;;;4994907;28;20745;-78
2022/12/26 09:13:40;;;;;;;3.42;0.40;;;6.40;99.90;;;;;;5002205;28;20474;-78
2022/12/26 09:16:11;;;;;;;5.80;0.80;;;6.80;99.90;;;;;;5000594;28;20486;-78
2022/12/26 09:18:37;;;;;;;7.28;1.10;;;7.40;99.90;;;;;;5008267;28;20030;-77
2022/12/26 09:21:06;;;;;;;3.65;1.10;;;8.10;95.00;;;;;;4999515;28;20540;-82
2022/12/26 09:23:33;;;;;;;5.68;1.10;;;8.70;91.30;;;;;;5002980;28;20068;-81
2022/12/26 09:26:13;;;;;;;5.22;1.00;;;9.30;88.70;;;;;;5001393;28;20034;-81
2022/12/26 09:28:39;;;;;;;7.63;1.48;;;9.70;85.70;;;;;;4998724;28;20166;-77
2022/12/26 09:31:14;;;;;;;4.82;1.13;;;10.00;81.50;;;;;;5000623;28;20112;-77
2022/12/26 09:33:40;;;;;;;5.93;0.95;;;10.50;76.50;;;;;;4999542;28;20446;-78
2022/12/26 09:36:07;;;;;;;3.45;1.50;;;10.70;74.70;;;;;;4995786;28;20121;-78
2022/12/26 09:38:35;;;;;;;9.73;1.52;;;10.70;75.40;;;;;;4996258;28;20030;-79
2022/12/26 09:41:22;;;;;;;7.18;1.15;;;10.80;72.40;;;;;;4999742;28;20141;-77
2022/12/26 09:44:13;;;;;;;5.18;0.90;;;10.90;72.70;;;;;;5000576;28;20075;-75
2022/12/26 09:47:16;;;;;;;4.75;0.70;;;10.90;72.70;;;;;;4999910;28;20038;-75
2022/12/26 09:49:54;;;;;;;4.90;0.70;;;10.70;72.50;;;;;;5001061;28;20044;-75
2022/12/26 09:52:51;;;;;;;3.42;0.80;;;10.70;72.20;;;;;;4998295;28;20045;-75
2022/12/26 09:55:35;;;;;;;4.35;0.85;;;10.60;71.50;;;;;;4995225;28;20041;-74
2022/12/26 09:58:14;;;;;;;3.33;0.60;;;10.60;71.80;;;;;;4994674;28;20025;-74
2022/12/26 10:00:49;;;;;;;4.18;0.60;;;10.60;72.60;;;;;;4992169;28;20201;-74
2022/12/26 10:03:15;;;;;;;4.43;0.75;;;10.50;73.70;;;;;;4988909;28;20041;-74
2022/12/26 10:06:00;;;;;;;6.82;0.77;;;10.50;74.00;;;;;;5003391;28;20114;-74
2022/12/26 10:08:54;;;;;;;4.80;0.80;;;10.30;74.20;;;;;;4989872;28;20068;-75
2022/12/26 10:11:41;;;;;;;4.65;0.95;;;10.40;72.70;;;;;;4995221;28;20096;-74
2022/12/26 10:14:21;;;;;;;2.88;0.80;;;10.80;73.30;;;;;;4996753;28;20033;-74
2022/12/26 10:17:00;;;;;;;3.85;0.50;;;11.40;70.50;;;;;;4998247;28;20105;-77
2022/12/26 10:19:56;;;;;;;3.45;0.60;;;11.70;67.40;;;;;;4999243;28;20427;-83
2022/12/26 10:22:53;;;;;;;3.85;0.60;;;11.70;68.20;;;;;;4996293;28;20030;-77
2022/12/26 10:25:44;;;;;;;4.32;0.82;;;11.50;68.70;;;;;;5001074;28;20113;-77
2022/12/26 10:28:23;;;;;;;8.45;0.60;;;11.10;70.80;;;;;;5000492;28;20440;-74
2022/12/26 10:30:51;;;;;;;2.15;0.70;;;10.60;75.40;;;;;;4999886;28;20037;-75
2022/12/26 10:33:35;;;;;;;1.63;0.52;;;10.40;78.00;;;;;;4999130;28;20413;-78
2022/12/26 10:36:02;;;;;;;2.67;0.68;;;10.20;82.10;;;;;;4995174;28;20076;-74
2022/12/26 10:38:40;;;;;;;1.05;0.45;;;10.20;82.50;;;;;;4994234;28;20338;-75
2022/12/26 10:41:24;;;;;;;1.65;0.30;;;10.30;89.20;;;;;;4996361;28;20045;-76
2022/12/26 10:43:49;;;;;;;1.38;0.40;;;10.30;85.40;;;;;;4992541;28;20104;-75
2022/12/26 10:46:31;;;;;;;2.17;0.40;;;10.30;85.20;;;;;;4986417;28;20094;-77
2022/12/26 10:48:58;;;;;;;1.55;0.60;;;10.40;88.00;;;;;;4993690;28;20069;-74
2022/12/26 10:51:24;;;;;;;1.75;0.43;;;10.30;84.40;;;;;;4994832;28;20025;-74
2022/12/26 10:53:52;;;;;;;2.88;0.85;;;10.10;82.70;;;;;;4994529;28;20262;-74
2022/12/26 10:56:20;;;;;;;1.90;0.50;;;9.90;85.90;;;;;;4994718;28;20101;-74
2022/12/26 10:58:57;;;;;;;1.80;0.50;;;10.20;83.60;;;;;;4994303;28;20117;-75
2022/12/26 11:01:37;;;;;;;3.22;0.50;;;10.50;87.00;;;;;;4993386;28;20028;-75
2022/12/26 11:04:21;;;;;;;5.40;0.77;;;10.80;81.90;;;;;;4999309;28;20030;-75
2022/12/26 11:06:51;;;;;;;1.40;0.50;;;11.50;83.30;;;;;;4987877;28;20042;-76
2022/12/26 11:09:42;;;;;;;3.50;0.63;;;12.00;74.50;;;;;;4983570;28;20172;-75
2022/12/26 11:12:25;;;;;;;1.75;0.45;;;12.30;71.80;;;;;;4988068;28;20041;-75
2022/12/26 11:14:58;;;;;;;2.42;0.50;;;12.90;70.90;;;;;;4995094;28;20037;-75
2022/12/26 11:17:30;;;;;;;2.45;0.50;;;13.00;67.80;;;;;;4989210;28;20038;-74
2022/12/26 11:20:14;;;;;;;4.53;0.70;;;13.10;65.90;;;;;;4995334;28;20486;-74
2022/12/26 11:22:41;;;;;;;4.63;0.93;;;13.10;65.70;;;;;;5012671;28;20120;-74
2022/12/26 11:25:09;;;;;;;5.28;0.80;;;13.10;66.20;;;;;;4996982;28;20025;-75
2022/12/26 11:27:40;;;;;;;6.88;0.60;;;13.00;65.50;;;;;;4997517;28;20064;-74
2022/12/26 11:30:12;;;;;;;6.07;0.63;;;12.50;65.70;;;;;;4997594;28;20184;-73
2022/12/26 11:32:39;;;;;;;3.00;0.40;;;12.00;68.40;;;;;;4996333;28;20046;-75
2022/12/26 11:35:14;;;;;;;3.50;0.60;;;11.90;70.50;;;;;;4994557;28;20065;-73
2022/12/26 11:37:43;;;;;;;2.47;0.85;;;12.00;69.60;;;;;;4997094;28;20101;-75
2022/12/26 11:40:26;;;;;;;5.18;0.50;;;12.10;67.00;;;;;;5006110;28;20404;-74
2022/12/26 11:42:58;;;;;;;6.38;1.15;;;12.30;67.60;;;;;;4991341;28;20536;-74
2022/12/26 11:45:27;;;;;;;2.80;0.52;;;12.50;67.60;;;;;;4992629;28;20485;-74
2022/12/26 11:47:55;;;;;;;4.88;0.88;;;12.60;66.60;;;;;;4992492;28;20025;-74
2022/12/26 11:50:28;;;;;;;1.85;0.47;;;12.70;66.50;;;;;;4993257;28;20095;-74
2022/12/26 11:52:56;;;;;;;3.60;0.68;;;12.90;67.50;;;;;;4991492;28;20457;-74
2022/12/26 11:55:25;;;;;;;4.30;0.60;;;13.00;65.80;;;;;;4990142;28;20458;-74
2022/12/26 11:58:09;;;;;;;3.83;0.60;;;13.30;65.30;;;;;;4990148;28;20083;-74
2022/12/26 12:00:37;;;;;;;2.83;0.60;;;13.30;64.10;;;;;;4994213;28;20434;-73
2022/12/26 12:03:31;;;;;;;2.05;0.50;;;13.40;62.60;;;;;;4990842;28;20211;-74
2022/12/26 12:06:05;;;;;;;4.88;0.80;;;13.40;63.80;;;;;;4985607;28;20046;-75
2022/12/26 12:08:50;;;;;;;3.80;0.68;;;13.50;61.40;;;;;;4991435;28;20072;-74
2022/12/26 12:11:53;;;;;;;5.70;0.93;;;13.60;62.20;;;;;;4997975;28;20344;-74
2022/12/26 12:14:41;;;;;;;5.38;0.90;;;13.50;62.60;;;;;;4992541;28;20560;-74
2022/12/26 12:17:26;;;;;;;4.93;0.68;;;13.50;61.00;;;;;;4990323;28;20465;-74
2022/12/26 12:20:00;;;;;;;2.08;0.77;;;13.40;61.90;;;;;;4990688;28;20037;-75
2022/12/26 12:22:38;;;;;;;1.88;0.60;;;12.90;61.40;;;;;;4990074;28;20026;-74
2022/12/26 12:25:34;;;;;;;6.03;1.00;;;12.80;66.10;;;;;;5008135;28;20033;-74
2022/12/26 12:28:18;;;;;;;2.05;0.70;;;12.70;65.10;;;;;;4991628;28;20021;-74
2022/12/26 12:31:17;;;;;;;3.05;0.77;;;12.40;65.40;;;;;;4991453;28;20034;-74
2022/12/26 12:34:04;;;;;;;3.38;0.70;;;12.40;67.70;;;;;;5005628;28;20061;-74
2022/12/26 12:36:51;;;;;;;3.60;0.95;;;12.80;70.00;;;;;;4992155;28;20548;-74
2022/12/26 12:39:17;;;;;;;5.90;1.00;;;12.80;66.50;;;;;;4995111;28;20041;-75
2022/12/26 12:42:13;;;;;;;4.07;0.90;;;13.00;68.30;;;;;;5002887;28;20505;-74
2022/12/26 12:44:50;;;;;;;3.53;0.68;;;12.80;66.20;;;;;;5012684;28;20063;-74
2022/12/26 12:47:40;;;;;;;5.65;1.08;;;12.70;68.10;;;;;;4994977;28;20029;-74
2022/12/26 12:50:27;;;;;;;3.60;0.60;;;12.80;69.40;;;;;;5010319;28;20488;-75
2022/12/26 12:53:30;;;;;;;3.47;0.70;;;12.90;66.90;;;;;;5012993;28;20036;-74
2022/12/26 12:56:41;;;;;;;2.78;0.80;;;12.70;65.50;;;;;;5012049;28;20034;-74
2022/12/26 12:59:37;;;;;;;3.88;0.98;;;12.40;65.60;;;;;;5018364;28;20053;-74
2022/12/26 13:02:30;;;;;;;2.50;0.75;;;12.10;68.90;;;;;;5001451;28;20045;-73
2022/12/26 13:05:13;;;;;;;3.78;0.57;;;12.00;65.40;;;;;;5021944;28;20081;-73
2022/12/26 13:07:43;;;;;;;2.63;0.80;;;12.20;63.60;;;;;;5021310;28;20434;-74
2022/12/26 13:10:34;;;;;;;2.28;0.50;;;11.90;63.40;;;;;;5022327;28;20176;-73
2022/12/26 13:13:18;;;;;;;1.33;0.50;;;11.40;63.00;;;;;;5019039;28;20033;-74
2022/12/26 13:15:50;;;;;;;3.67;0.68;;;11.20;63.10;;;;;;5020161;28;20056;-74
2022/12/26 13:18:27;;;;;;;3.08;0.63;;;11.00;64.10;;;;;;5020874;28;20032;-74
2022/12/26 13:21:03;;;;;;;5.35;0.68;;;11.10;68.10;;;;;;5018976;28;20033;-74
2022/12/26 13:26:42;;;;;;;2.58;0.47;;;11.60;64.70;;;;;;5022264;28;20091;-74
2022/12/26 13:29:32;;;;;;;4.72;0.70;;;11.40;63.90;;;;;;5021134;28;20595;-74
2022/12/26 13:31:59;;;;;;;2.25;0.60;;;11.20;65.90;;;;;;5007138;28;20437;-74
2022/12/26 13:34:25;;;;;;;3.47;0.68;;;11.40;69.20;;;;;;5020866;28;20116;-73
2022/12/26 13:36:54;;;;;;;3.85;0.80;;;11.60;67.90;;;;;;5017539;28;20481;-74
2022/12/26 13:39:26;;;;;;;3.75;1.17;;;11.30;66.00;;;;;;4996379;28;20029;-77
2022/12/26 13:44:39;;;;;;;3.88;1.20;;;11.00;64.90;;;;;;5019539;28;19924;-73
2022/12/26 13:47:35;;;;;;;2.55;0.90;;;10.90;68.20;;;;;;5020513;28;20504;-74
2022/12/26 13:50:38;;;;;;;6.90;0.80;;;11.00;70.50;;;;;;5020935;28;20037;-74
2022/12/26 13:53:25;;;;;;;2.75;0.90;;;10.70;70.50;;;;;;5021801;28;20071;-74
2022/12/26 13:56:17;;;;;;;4.57;1.17;;;10.80;72.30;;;;;;5003483;28;20045;-73
2022/12/26 13:59:00;;;;;;;3.17;1.02;;;11.00;73.90;;;;;;5020527;28;20030;-74
2022/12/26 14:01:42;;;;;;;3.55;0.95;;;10.90;71.30;;;;;;5016218;28;20045;-74
2022/12/26 14:04:13;;;;;;;3.05;0.70;;;10.50;72.90;;;;;;5020030;28;20203;-73
2022/12/26 14:07:16;;;;;;;3.35;0.70;;;10.30;68.60;;;;;;5019778;28;20337;-73
2022/12/26 14:10:02;;;;;;;3.30;0.93;;;10.30;68.30;;;;;;5001386;28;20038;-74
2022/12/26 14:13:17;;;;;;;2.65;0.90;;;9.90;69.70;;;;;;5010790;28;20513;-74
2022/12/26 14:15:53;;;;;;;4.28;0.65;;;9.70;70.10;;;;;;5015509;28;20045;-73
2022/12/26 14:18:37;;;;;;;2.55;0.80;;;9.40;73.60;;;;;;5018436;28;20026;-72
2022/12/26 14:21:38;;;;;;;5.78;0.88;;;9.00;73.30;;;;;;5016891;28;20039;-75
2022/12/26 14:24:23;;;;;;;2.30;0.83;;;8.80;78.30;;;;;;4984957;28;20537;-74
2022/12/26 14:26:56;;;;;;;3.58;0.95;;;8.60;78.40;;;;;;5019666;28;20309;-75
2022/12/26 14:29:49;;;;;;;2.92;0.73;;;8.60;83.00;;;;;;5020456;28;20277;-75
2022/12/26 14:32:26;;;;;;;9.00;1.25;;;8.60;82.00;;;;;;5021017;28;20076;-75
2022/12/26 14:35:11;;;;;;;5.07;1.08;;;8.60;84.20;;;;;;5020314;28;20033;-75
2022/12/26 14:37:49;;;;;;;5.40;1.00;;;8.60;83.00;;;;;;5000102;28;20132;-75
2022/12/26 14:40:33;;;;;;;3.60;0.80;;;8.50;87.50;;;;;;5000980;28;20105;-74
2022/12/26 14:43:11;;;;;;;2.97;0.82;;;8.50;87.00;;;;;;4996223;28;20091;-76
2022/12/26 14:45:41;;;;;;;4.38;0.95;;;8.30;90.40;;;;;;4997899;28;20405;-75
2022/12/26 14:48:15;;;;;;;6.28;0.93;;;8.20;91.80;;;;;;5017097;28;20029;-75
2022/12/26 14:50:44;;;;;;;3.55;0.80;;;8.10;93.70;;;;;;5019256;28;20157;-75
2022/12/26 14:53:19;;;;;;;6.15;1.30;;;7.90;96.10;;;;;;5019447;28;20113;-75
2022/12/26 14:56:00;;;;;;;4.50;0.98;;;7.80;94.30;;;;;;5019169;28;20125;-75
2022/12/26 14:58:31;;;;;;;5.57;1.08;;;7.70;96.10;;;;;;5000932;28;20029;-75
2022/12/26 15:01:22;;;;;;;4.93;0.75;;;7.70;98.80;;;;;;5015492;28;20104;-75
2022/12/26 15:04:03;;;;;;;3.00;1.05;;;7.60;98.40;;;;;;5009496;28;20046;-75
2022/12/26 15:06:52;;;;;;;5.78;1.10;;;7.50;99.90;;;;;;5015994;28;20417;-73
2022/12/26 15:09:55;;;;;;;3.67;0.70;;;7.40;99.90;;;;;;5018657;28;20040;-73
2022/12/26 15:13:12;;;;;;;5.82;1.02;;;7.20;99.90;;;;;;5017493;28;20444;-73
2022/12/26 15:16:08;;;;;;;8.95;1.20;;;7.10;99.90;;;;;;4983986;28;20037;-72
2022/12/26 15:19:01;;;;;;;3.13;0.90;;;7.10;99.90;;;;;;5015843;28;20457;-73
2022/12/26 15:21:51;;;;;;;5.22;0.93;;;7.00;99.90;;;;;;5019639;28;20045;-76
2022/12/26 15:24:16;;;;;;;6.70;0.88;;;6.90;99.90;;;;;;5017820;28;20037;-75
2022/12/26 15:27:12;;;;;;;8.20;0.88;;;6.80;99.90;;;;;;5012550;28;20037;-74
2022/12/26 15:29:38;;;;;;;8.23;0.88;;;6.80;99.90;;;;;;5019788;28;20029;-73
2022/12/26 15:32:16;;;;;;;6.53;1.10;;;6.80;99.90;;;;;;5017744;28;20080;-72
2022/12/26 15:34:48;;;;;;;3.08;1.00;;;6.70;99.90;;;;;;5017694;28;20040;-72